createdAt,value
2022-09-21T00:01:05.878Z,4.00
2022-09-21T00:03:10.674Z,5.27
2022-09-21T00:05:14.044Z,4.90
2022-09-21T00:07:17.385Z,4.40
2022-09-21T00:09:20.832Z,4.57
2022-09-21T00:11:26.583Z,4.30
2022-09-21T00:13:30.170Z,4.63
2022-09-21T00:15:33.678Z,4.57
2022-09-21T00:17:38.238Z,4.30
2022-09-21T00:34:57.538Z,4.00
2022-09-21T00:37:00.808Z,5.20
2022-09-21T00:39:04.600Z,4.43
2022-09-21T00:41:09.354Z,4.23
2022-09-21T00:43:17.243Z,3.30
2022-09-21T00:45:22.012Z,3.93
2022-09-21T00:47:31.916Z,4.40
2022-09-21T00:49:36.756Z,4.83
2022-09-21T00:51:42.421Z,4.27
2022-09-21T00:53:46.894Z,4.13
2022-09-21T00:55:55.920Z,4.40
2022-09-21T00:58:04.522Z,8.57
2022-09-21T01:00:10.788Z,11.00
2022-09-21T01:02:15.845Z,6.10
2022-09-21T01:04:19.657Z,6.27
2022-09-21T01:06:23.263Z,5.53
2022-09-21T01:08:29.495Z,5.20
2022-09-21T01:10:43.135Z,4.20
2022-09-21T01:13:01.946Z,4.60
2022-09-21T01:15:20.904Z,4.13
2022-09-21T01:17:33.662Z,3.80
2022-09-21T01:20:08.369Z,3.43
2022-09-21T01:22:20.240Z,3.63
2022-09-21T01:24:45.670Z,3.50
2022-09-21T01:27:07.540Z,3.47
2022-09-21T01:29:21.145Z,3.83
2022-09-21T01:31:29.642Z,3.43
2022-09-21T01:33:37.839Z,3.10
2022-09-21T01:35:47.533Z,2.80
2022-09-21T01:37:57.571Z,3.03
2022-09-21T01:40:05.704Z,3.47
2022-09-21T01:42:10.075Z,3.17
2022-09-21T01:44:19.806Z,3.13
2022-09-21T01:46:26.768Z,3.07
2022-09-21T01:48:35.799Z,3.10
2022-09-21T01:50:45.227Z,3.43
2022-09-21T01:52:53.903Z,3.30
2022-09-21T01:55:02.482Z,3.30
2022-09-21T01:57:11.366Z,2.67
2022-09-21T01:59:23.066Z,2.90
2022-09-21T02:01:29.397Z,2.90
2022-09-21T02:03:38.067Z,2.60
2022-09-21T02:05:42.701Z,2.50
2022-09-21T02:07:47.792Z,2.60
2022-09-21T02:09:51.169Z,2.70
2022-09-21T02:11:54.519Z,2.30
2022-09-21T02:13:57.893Z,2.73
2022-09-21T02:16:20.380Z,2.80
2022-09-21T02:18:37.263Z,2.50
2022-09-21T02:20:50.090Z,2.70
2022-09-21T02:23:04.412Z,2.83
2022-09-21T02:25:11.902Z,2.80
2022-09-21T02:27:25.565Z,3.30
2022-09-21T02:29:36.288Z,2.30
2022-09-21T02:31:48.153Z,2.37
2022-09-21T02:33:59.912Z,2.60
2022-09-21T02:36:08.596Z,2.90
2022-09-21T02:38:18.670Z,2.57
2022-09-21T02:40:28.987Z,2.90
2022-09-21T02:42:36.626Z,2.57
2022-09-21T02:44:43.684Z,2.50
2022-09-21T02:46:55.035Z,2.80
2022-09-21T02:49:01.613Z,2.40
2022-09-21T02:51:10.543Z,2.90
2022-09-21T02:53:19.094Z,2.17
2022-09-21T02:55:23.840Z,2.23
2022-09-21T02:57:27.954Z,2.30
2022-09-21T02:59:31.636Z,2.30
2022-09-21T03:01:35.956Z,2.27
2022-09-21T03:03:40.629Z,2.30
2022-09-21T03:05:44.676Z,2.43
2022-09-21T03:07:48.122Z,2.50
2022-09-21T03:09:51.439Z,2.30
2022-09-21T03:11:55.000Z,2.53
2022-09-21T03:13:59.312Z,3.13
2022-09-21T03:16:04.916Z,2.53
2022-09-21T03:18:11.307Z,2.73
2022-09-21T03:20:16.481Z,2.80
2022-09-21T03:22:21.224Z,2.50
2022-09-21T03:24:38.638Z,2.97
2022-09-21T03:26:43.343Z,2.30
2022-09-21T03:28:46.681Z,2.43
2022-09-21T03:30:51.345Z,2.37
2022-09-21T03:32:55.382Z,2.10
2022-09-21T03:34:58.646Z,2.80
2022-09-21T03:37:04.062Z,2.43
2022-09-21T03:39:07.399Z,2.67
2022-09-21T03:41:11.007Z,2.50
2022-09-21T03:43:14.837Z,2.40
2022-09-21T03:45:18.462Z,2.43
2022-09-21T03:47:22.478Z,1.73
2022-09-21T03:49:26.063Z,2.40
2022-09-21T03:51:31.469Z,2.77
2022-09-21T03:53:36.126Z,2.27
2022-09-21T03:55:39.593Z,2.27
2022-09-21T03:57:43.035Z,2.50
2022-09-21T03:59:46.371Z,2.03
2022-09-21T04:01:49.786Z,2.20
2022-09-21T04:03:53.255Z,2.47
2022-09-21T04:05:56.741Z,2.10
2022-09-21T04:08:02.074Z,2.23
2022-09-21T04:10:09.112Z,2.10
2022-09-21T04:12:12.845Z,2.37
2022-09-21T04:14:17.430Z,1.93
2022-09-21T04:16:20.787Z,2.40
2022-09-21T04:18:24.197Z,2.50
2022-09-21T04:20:27.614Z,2.33
2022-09-21T04:22:31.434Z,2.10
2022-09-21T04:24:34.770Z,3.03
2022-09-21T04:26:40.720Z,2.90
2022-09-21T04:28:44.233Z,3.03
2022-09-21T04:30:47.752Z,2.27
2022-09-21T04:32:51.216Z,2.63
2022-09-21T04:34:54.598Z,2.23
2022-09-21T04:36:58.437Z,2.20
2022-09-21T04:39:02.503Z,2.50
2022-09-21T04:41:06.111Z,2.73
2022-09-21T04:43:10.843Z,2.20
2022-09-21T04:45:14.208Z,2.57
2022-09-21T04:47:17.532Z,2.50
2022-09-21T04:49:20.953Z,2.50
2022-09-21T04:51:24.465Z,2.37
2022-09-21T04:53:27.860Z,2.20
2022-09-21T04:55:31.247Z,1.83
2022-09-21T04:57:35.683Z,2.73
2022-09-21T04:59:40.499Z,2.43
2022-09-21T05:01:43.948Z,2.77
2022-09-21T05:03:47.419Z,2.23
2022-09-21T05:05:52.211Z,34.30
2022-09-21T05:07:55.604Z,6.70
2022-09-21T05:10:04.259Z,6.77
2022-09-21T05:12:08.111Z,5.37
2022-09-21T05:14:12.000Z,4.03
2022-09-21T05:16:16.926Z,3.43
2022-09-21T05:18:20.358Z,4.33
2022-09-21T05:20:26.433Z,3.63
2022-09-21T05:22:29.937Z,2.93
2022-09-21T05:24:33.430Z,3.30
2022-09-21T05:26:36.819Z,2.80
2022-09-21T05:28:40.886Z,2.70
2022-09-21T05:31:07.255Z,2.83
2022-09-21T05:33:14.836Z,2.33
2022-09-21T05:35:29.851Z,2.40
2022-09-21T05:37:44.335Z,2.40
2022-09-21T05:39:48.283Z,2.53
2022-09-21T05:41:52.255Z,2.30
2022-09-21T05:43:56.441Z,2.87
2022-09-21T05:46:05.225Z,2.30
2022-09-21T05:48:17.176Z,3.07
2022-09-21T05:50:30.973Z,2.87
2022-09-21T05:52:44.415Z,2.73
2022-09-21T05:54:59.848Z,2.63
2022-09-21T05:57:08.836Z,3.00
2022-09-21T05:59:45.076Z,2.33
2022-09-21T06:01:59.785Z,2.40
2022-09-21T06:04:05.412Z,9.20
2022-09-21T06:06:10.042Z,5.30
2022-09-21T06:08:13.479Z,4.70
2022-09-21T06:10:17.370Z,4.70
2022-09-21T06:12:20.897Z,3.90
2022-09-21T06:14:26.504Z,5.00
2022-09-21T06:16:38.460Z,3.60
2022-09-21T06:18:42.649Z,3.47
2022-09-21T06:20:47.518Z,3.13
2022-09-21T06:22:50.834Z,3.43
2022-09-21T06:24:54.258Z,3.10
2022-09-21T06:26:57.640Z,3.27
2022-09-21T06:29:01.394Z,3.40
2022-09-21T06:31:04.909Z,7.13
2022-09-21T06:33:09.026Z,3.93
2022-09-21T06:35:12.383Z,4.17
2022-09-21T06:37:20.289Z,3.77
2022-09-21T06:39:23.836Z,3.63
2022-09-21T06:41:27.241Z,4.17
2022-09-21T06:43:30.987Z,4.20
2022-09-21T06:45:34.663Z,4.03
2022-09-21T06:47:38.270Z,3.67
2022-09-21T06:49:42.638Z,3.47
2022-09-21T06:51:48.178Z,4.00
2022-09-21T06:53:56.130Z,4.97
2022-09-21T06:56:03.205Z,4.50
2022-09-21T06:58:06.547Z,4.20
2022-09-21T07:00:12.430Z,4.73
2022-09-21T07:02:16.404Z,5.20
2022-09-21T07:04:25.002Z,6.00
2022-09-21T07:06:29.420Z,6.47
2022-09-21T07:11:00.534Z,6.20
2022-09-21T07:13:05.902Z,5.73
2022-09-21T07:15:11.844Z,6.57
2022-09-21T07:17:16.190Z,6.80
2022-09-21T07:19:19.586Z,7.67
2022-09-21T07:21:22.958Z,6.60
2022-09-21T07:23:26.411Z,7.63
2022-09-21T07:25:29.830Z,8.00
2022-09-21T07:27:34.991Z,6.53
2022-09-21T07:29:38.390Z,6.40
2022-09-21T07:31:44.961Z,7.10
2022-09-21T07:33:48.341Z,10.27
2022-09-21T07:35:52.869Z,9.87
2022-09-21T07:37:58.987Z,7.90
2022-09-21T07:40:05.928Z,8.67
2022-09-21T07:42:09.714Z,8.60
2022-09-21T07:44:14.450Z,8.10
2022-09-21T07:46:17.849Z,8.53
2022-09-21T07:48:22.503Z,8.00
2022-09-21T07:50:25.904Z,7.50
2022-09-21T07:52:29.458Z,8.67
2022-09-21T07:54:33.739Z,9.20
2022-09-21T07:56:38.494Z,7.93
2022-09-21T07:59:00.200Z,7.50
2022-09-21T08:01:07.959Z,9.33
2022-09-21T08:03:12.286Z,11.93
2022-09-21T08:05:16.236Z,11.10
2022-09-21T08:07:19.619Z,9.70
2022-09-21T08:09:23.221Z,10.37
2022-09-21T08:11:27.950Z,8.53
2022-09-21T08:13:31.640Z,8.30
2022-09-21T08:15:49.287Z,8.60
2022-09-21T08:17:55.190Z,7.73
2022-09-21T08:19:58.646Z,8.70
2022-09-21T08:22:02.001Z,8.80
2022-09-21T08:24:05.928Z,9.83
2022-09-21T08:26:11.599Z,9.37
2022-09-21T08:28:15.078Z,8.23
2022-09-21T08:30:18.755Z,8.50
2022-09-21T08:32:39.743Z,8.87
2022-09-21T08:34:46.885Z,8.60
2022-09-21T08:36:55.013Z,11.77
2022-09-21T08:38:59.049Z,11.23
2022-09-21T08:41:03.918Z,9.60
2022-09-21T08:43:13.198Z,9.00
2022-09-21T08:45:19.987Z,8.43
2022-09-21T08:47:34.605Z,8.17
2022-09-21T08:49:41.838Z,7.63
2022-09-21T08:51:53.310Z,7.50
2022-09-21T08:54:00.269Z,7.60
2022-09-21T08:56:04.448Z,6.47
2022-09-21T08:58:21.843Z,7.40
2022-09-21T09:00:25.739Z,6.33
2022-09-21T09:02:42.635Z,6.27
2022-09-21T09:04:59.174Z,6.37
2022-09-21T09:07:27.352Z,6.53
2022-09-21T09:09:55.872Z,7.67
2022-09-21T09:12:11.506Z,9.47
2022-09-21T09:14:48.858Z,6.80
2022-09-21T09:17:06.905Z,6.43
2022-09-21T09:19:20.838Z,6.10
2022-09-21T09:21:31.911Z,5.57
2022-09-21T09:23:42.800Z,5.40
2022-09-21T09:25:50.986Z,6.23
2022-09-21T09:27:58.255Z,6.33
2022-09-21T09:30:05.550Z,6.03
2022-09-21T09:32:14.183Z,4.13
2022-09-21T09:34:25.005Z,5.20
2022-09-21T09:36:56.689Z,3.50
2022-09-21T09:39:01.579Z,3.80
2022-09-21T09:41:28.455Z,3.40
2022-09-21T09:43:47.705Z,3.13
2022-09-21T09:46:03.956Z,2.97
2022-09-21T09:48:26.513Z,2.97
2022-09-21T09:50:31.279Z,2.60
2022-09-21T09:52:35.308Z,3.40
2022-09-21T09:54:40.282Z,2.80
2022-09-21T09:56:44.243Z,2.93
2022-09-21T09:58:53.652Z,3.17
2022-09-21T10:00:58.939Z,3.33
2022-09-21T10:03:02.487Z,3.33
2022-09-21T10:05:07.462Z,3.07
2022-09-21T10:07:19.392Z,3.27
2022-09-21T10:09:28.447Z,2.43
2022-09-21T10:11:39.474Z,2.47
2022-09-21T10:13:44.814Z,2.90
2022-09-21T10:15:51.456Z,2.27
2022-09-21T10:18:02.128Z,2.03
2022-09-21T10:20:08.258Z,2.60
2022-09-21T10:22:17.863Z,2.67
2022-09-21T10:24:24.391Z,2.20
2022-09-21T10:26:33.091Z,2.93
2022-09-21T10:28:38.623Z,2.17
2022-09-21T10:30:42.018Z,2.27
2022-09-21T10:32:56.758Z,2.30
2022-09-21T10:35:19.158Z,2.27
2022-09-21T10:37:28.126Z,1.20
2022-09-21T10:39:32.356Z,1.87
2022-09-21T10:41:38.275Z,2.50
2022-09-21T10:43:44.494Z,3.70
2022-09-21T10:45:55.064Z,4.00
2022-09-21T10:48:07.949Z,2.10
2022-09-21T10:50:24.601Z,2.00
2022-09-21T10:52:34.711Z,2.70
2022-09-21T10:54:40.807Z,5.60
2022-09-21T10:56:53.972Z,2.03
2022-09-21T10:59:23.411Z,1.60
2022-09-21T11:01:31.167Z,1.70
2022-09-21T11:03:48.432Z,2.10
2022-09-21T11:05:54.622Z,1.50
2022-09-21T11:08:03.577Z,1.83
2022-09-21T11:10:16.183Z,1.57
2022-09-21T11:12:44.984Z,1.40
2022-09-21T11:14:54.144Z,1.40
2022-09-21T11:17:03.295Z,1.27
2022-09-21T11:19:18.240Z,1.47
2022-09-21T11:21:31.480Z,1.80
2022-09-21T11:23:45.593Z,1.77
2022-09-21T11:25:56.379Z,1.67
2022-09-21T11:28:07.152Z,1.40
2022-09-21T11:30:14.382Z,1.27
2022-09-21T11:32:37.258Z,1.80
2022-09-21T11:35:04.187Z,1.83
2022-09-21T11:37:17.597Z,1.50
2022-09-21T11:39:27.627Z,1.47
2022-09-21T11:41:46.080Z,1.40
2022-09-21T11:44:17.094Z,1.37
2022-09-21T11:46:33.282Z,1.23
2022-09-21T11:48:51.058Z,1.93
2022-09-21T11:51:06.541Z,1.30
2022-09-21T11:53:25.431Z,1.10
2022-09-21T11:55:53.306Z,1.33
2022-09-21T11:58:04.006Z,1.50
2022-09-21T12:00:16.425Z,1.43
2022-09-21T12:02:37.264Z,1.43
2022-09-21T12:04:49.422Z,5.53
2022-09-21T12:07:07.670Z,3.47
2022-09-21T12:09:44.893Z,1.80
2022-09-21T12:11:56.544Z,1.73
2022-09-21T12:14:09.128Z,1.13
2022-09-21T12:16:19.418Z,2.70
2022-09-21T12:18:32.523Z,1.37
2022-09-21T12:20:47.239Z,1.20
2022-09-21T12:22:57.903Z,1.13
2022-09-21T12:25:06.459Z,1.50
2022-09-21T12:27:28.708Z,1.50
2022-09-21T12:29:39.043Z,1.40
2022-09-21T12:31:48.345Z,1.07
2022-09-21T12:33:57.741Z,1.10
2022-09-21T12:36:09.192Z,1.20
2022-09-21T12:38:17.866Z,1.10
2022-09-21T12:40:27.889Z,1.20
2022-09-21T12:42:40.083Z,1.20
2022-09-21T12:44:54.847Z,1.10
2022-09-21T12:47:09.394Z,1.03
2022-09-21T12:49:20.383Z,0.90
2022-09-21T12:51:29.625Z,1.17
2022-09-21T12:53:37.761Z,1.20
2022-09-21T12:55:50.030Z,0.90
2022-09-21T12:58:16.377Z,1.00
2022-09-21T13:00:22.577Z,1.20
2022-09-21T13:02:35.241Z,1.40
2022-09-21T13:04:53.383Z,1.80
2022-09-21T13:07:19.633Z,1.30
2022-09-21T13:09:24.359Z,0.83
2022-09-21T13:11:27.917Z,1.10
2022-09-21T13:13:33.981Z,1.37
2022-09-21T13:15:45.597Z,1.43
2022-09-21T13:18:02.295Z,1.23
2022-09-21T13:20:17.894Z,1.13
2022-09-21T13:22:25.127Z,1.30
2022-09-21T13:24:31.674Z,1.40
2022-09-21T13:26:40.113Z,1.20
2022-09-21T13:29:06.201Z,1.30
2022-09-21T13:31:47.720Z,1.40
2022-09-21T13:34:08.775Z,1.20
2022-09-21T13:36:35.194Z,1.00
2022-09-21T13:38:58.415Z,1.10
2022-09-21T13:41:08.004Z,1.10
2022-09-21T13:43:22.435Z,1.30
2022-09-21T13:45:53.361Z,1.50
2022-09-21T13:48:00.124Z,1.20
2022-09-21T13:50:12.547Z,1.07
2022-09-21T13:52:32.022Z,1.30
2022-09-21T13:54:39.990Z,1.10
2022-09-21T13:56:45.655Z,1.20
2022-09-21T13:58:53.189Z,1.13
2022-09-21T14:00:59.927Z,1.60
2022-09-21T14:03:07.488Z,1.27
2022-09-21T14:05:25.385Z,1.27
2022-09-21T14:07:33.221Z,2.63
2022-09-21T14:09:44.470Z,1.50
2022-09-21T14:11:56.438Z,1.67
2022-09-21T14:14:09.475Z,1.00
2022-09-21T14:17:03.399Z,1.10
2022-09-21T14:19:45.525Z,1.00
2022-09-21T14:22:26.530Z,1.47
2022-09-21T14:24:38.798Z,1.27
2022-09-21T14:26:52.021Z,1.53
2022-09-21T14:28:55.577Z,1.20
2022-09-21T14:31:03.033Z,1.20
2022-09-21T14:33:33.909Z,1.13
2022-09-21T14:35:41.184Z,1.50
2022-09-21T14:37:52.111Z,1.30
2022-09-21T14:39:59.348Z,1.10
2022-09-21T14:42:12.170Z,1.23
2022-09-21T14:44:21.061Z,1.17
2022-09-21T14:46:45.210Z,1.20
2022-09-21T14:49:00.107Z,1.57
2022-09-21T14:51:13.447Z,1.77
2022-09-21T14:53:35.618Z,5.60
2022-09-21T14:55:56.133Z,1.40
2022-09-21T14:58:14.346Z,1.00
2022-09-21T15:00:23.388Z,1.10
2022-09-21T15:02:28.800Z,1.10
2022-09-21T15:04:45.889Z,1.37
2022-09-21T15:07:16.505Z,1.27
2022-09-21T15:09:59.488Z,0.90
2022-09-21T15:12:12.062Z,1.17
2022-09-21T15:14:21.979Z,1.73
2022-09-21T15:16:37.550Z,1.10
2022-09-21T15:18:42.525Z,1.00
2022-09-21T15:20:46.214Z,1.37
2022-09-21T15:22:49.546Z,1.10
2022-09-21T15:24:55.617Z,1.40
2022-09-21T15:27:10.258Z,1.03
2022-09-21T15:29:27.488Z,0.83
2022-09-21T15:31:34.934Z,1.30
2022-09-21T15:33:39.308Z,1.23
2022-09-21T15:35:47.666Z,1.10
2022-09-21T15:37:52.577Z,1.20
2022-09-21T15:40:01.904Z,1.00
2022-09-21T15:42:22.711Z,1.10
2022-09-21T15:44:34.128Z,1.00
2022-09-21T15:46:37.563Z,1.10
2022-09-21T15:48:42.442Z,1.00
2022-09-21T15:50:49.733Z,1.20
2022-09-21T15:52:57.385Z,0.93
2022-09-21T15:55:02.802Z,6.17
2022-09-21T15:57:27.094Z,1.10
2022-09-21T15:59:31.011Z,1.10
2022-09-21T16:01:40.871Z,1.10
2022-09-21T16:03:45.146Z,1.53
2022-09-21T16:05:50.581Z,1.00
2022-09-21T16:08:07.942Z,3.90
2022-09-21T16:10:36.433Z,2.90
2022-09-21T16:12:42.630Z,1.30
2022-09-21T16:14:54.004Z,1.63
2022-09-21T16:17:24.699Z,2.43
2022-09-21T16:19:42.112Z,4.20
2022-09-21T16:21:45.554Z,3.60
2022-09-21T16:23:49.921Z,1.97
2022-09-21T16:26:00.821Z,1.40
2022-09-21T16:28:11.129Z,2.37
2022-09-21T16:30:40.938Z,1.30
2022-09-21T16:32:48.147Z,1.10
2022-09-21T16:34:53.185Z,1.10
2022-09-21T16:36:57.336Z,0.90
2022-09-21T16:39:06.107Z,0.80
2022-09-21T16:41:10.880Z,0.90
2022-09-21T16:43:16.361Z,1.07
2022-09-21T16:45:25.148Z,1.40
2022-09-21T16:47:29.836Z,1.00
2022-09-21T16:49:35.050Z,1.30
2022-09-21T16:51:42.943Z,1.40
2022-09-21T16:53:46.338Z,2.00
2022-09-21T16:55:49.639Z,2.57
2022-09-21T16:57:53.126Z,1.57
2022-09-21T16:59:58.924Z,2.50
2022-09-21T17:02:04.946Z,2.00
2022-09-21T17:04:08.357Z,1.87
2022-09-21T17:06:16.685Z,1.20
2022-09-21T17:08:20.887Z,1.30
2022-09-21T17:10:29.200Z,1.20
2022-09-21T17:12:32.560Z,2.03
2022-09-21T17:14:40.020Z,1.30
2022-09-21T17:16:50.733Z,1.20
2022-09-21T17:18:54.084Z,1.10
2022-09-21T17:20:57.487Z,1.20
2022-09-21T17:23:01.991Z,1.20
2022-09-21T17:25:06.244Z,1.23
2022-09-21T17:27:09.847Z,1.57
2022-09-21T17:29:23.050Z,1.77
2022-09-21T17:31:28.133Z,2.00
2022-09-21T17:33:33.086Z,1.60
2022-09-21T17:35:39.836Z,2.00
2022-09-21T17:37:43.168Z,27.10
2022-09-21T17:39:47.223Z,8.50
2022-09-21T17:41:53.512Z,6.27
2022-09-21T17:44:05.074Z,5.13
2022-09-21T17:46:15.674Z,3.00
2022-09-21T17:48:21.030Z,3.70
2022-09-21T17:50:27.660Z,2.17
2022-09-21T17:52:49.435Z,3.00
2022-09-21T17:54:53.177Z,2.23
2022-09-21T17:57:07.558Z,1.67
2022-09-21T17:59:26.296Z,1.60
2022-09-21T18:01:33.770Z,1.50
2022-09-21T18:03:41.057Z,1.53
2022-09-21T18:05:46.572Z,1.50
2022-09-21T18:07:50.948Z,1.30
2022-09-21T18:09:54.891Z,2.00
2022-09-21T18:12:40.208Z,2.07
2022-09-21T18:14:54.583Z,2.70
2022-09-21T18:17:11.776Z,2.13
2022-09-21T18:19:31.021Z,1.90
2022-09-21T18:21:41.475Z,3.17
2022-09-21T18:23:54.406Z,3.17
2022-09-21T18:25:58.485Z,2.43
2022-09-21T18:28:12.277Z,2.40
2022-09-21T18:30:16.781Z,2.30
2022-09-21T18:32:39.580Z,2.20
2022-09-21T18:34:59.680Z,2.00
2022-09-21T18:37:12.971Z,1.60
2022-09-21T18:39:27.800Z,1.67
2022-09-21T18:41:37.290Z,1.67
2022-09-21T18:43:58.263Z,1.90
2022-09-21T18:46:04.667Z,12.53
2022-09-21T18:48:22.638Z,8.30
2022-09-21T18:50:31.909Z,5.90
2022-09-21T18:52:51.547Z,6.30
2022-09-21T18:54:55.168Z,6.97
2022-09-21T18:56:59.257Z,5.23
2022-09-21T18:59:03.403Z,5.63
2022-09-21T19:01:07.755Z,5.87
2022-09-21T19:03:18.300Z,4.77
2022-09-21T19:05:22.872Z,4.00
2022-09-21T19:07:39.905Z,3.20
2022-09-21T19:09:53.820Z,3.57
2022-09-21T19:12:05.022Z,4.20
2022-09-21T19:14:16.631Z,11.03
2022-09-21T19:16:30.115Z,7.20
2022-09-21T19:18:44.702Z,8.33
2022-09-21T19:21:00.099Z,8.87
2022-09-21T19:23:18.093Z,6.40
2022-09-21T19:25:31.173Z,6.73
2022-09-21T19:27:39.456Z,7.10
2022-09-21T19:29:54.530Z,6.40
2022-09-21T19:31:58.134Z,7.10
2022-09-21T19:34:11.237Z,6.50
2022-09-21T19:36:15.192Z,6.20
2022-09-21T19:38:20.307Z,6.77
2022-09-21T19:40:27.594Z,4.60
2022-09-21T19:42:41.389Z,5.07
2022-09-21T19:45:07.886Z,6.53
2022-09-21T19:47:24.564Z,8.30
2022-09-21T19:49:37.362Z,7.93
2022-09-21T19:51:47.777Z,6.87
2022-09-21T19:54:14.445Z,5.57
2022-09-21T19:56:36.936Z,4.90
2022-09-21T19:58:58.302Z,4.13
2022-09-21T20:01:01.860Z,3.90
2022-09-21T20:03:11.404Z,3.30
2022-09-21T20:05:23.224Z,3.73
2022-09-21T20:07:37.571Z,3.40
2022-09-21T20:09:45.034Z,3.20
2022-09-21T20:11:56.380Z,2.40
2022-09-21T20:14:17.192Z,3.00
2022-09-21T20:16:33.500Z,2.93
2022-09-21T20:18:45.856Z,2.63
2022-09-21T20:20:49.562Z,3.60
2022-09-21T20:22:53.695Z,3.23
2022-09-21T20:25:01.735Z,4.30
2022-09-21T20:27:21.046Z,3.70
2022-09-21T20:29:24.537Z,3.63
2022-09-21T20:31:27.989Z,5.30
2022-09-21T20:33:32.104Z,3.37
2022-09-21T20:35:36.027Z,4.23
2022-09-21T20:37:39.386Z,4.90
2022-09-21T20:39:42.715Z,3.90
2022-09-21T20:41:46.357Z,4.03
2022-09-21T20:43:51.083Z,5.37
2022-09-21T20:45:57.731Z,4.43
2022-09-21T20:48:13.019Z,4.00
2022-09-21T20:50:16.819Z,4.33
2022-09-21T20:52:20.314Z,4.20
2022-09-21T20:54:23.682Z,4.00
2022-09-21T20:56:26.959Z,5.30
2022-09-21T20:58:30.901Z,6.30
2022-09-21T21:00:36.701Z,4.50
2022-09-21T21:02:40.010Z,5.40
2022-09-21T21:04:43.390Z,6.57
2022-09-21T21:06:46.806Z,6.80
2022-09-21T21:08:50.159Z,8.60
2022-09-21T21:10:56.715Z,6.70
2022-09-21T21:13:00.231Z,6.10
2022-09-21T21:15:03.597Z,5.33
2022-09-21T21:17:08.334Z,5.20
2022-09-21T21:19:12.306Z,6.00
2022-09-21T21:21:15.663Z,4.77
2022-09-21T21:23:19.103Z,4.53
2022-09-21T21:25:21.489Z,5.13
2022-09-21T21:27:26.608Z,4.20
2022-09-21T21:29:29.947Z,3.80
2022-09-21T21:31:33.525Z,3.90
2022-09-21T21:33:38.309Z,4.93
2022-09-21T21:35:42.151Z,4.73
2022-09-21T21:37:45.715Z,5.30
2022-09-21T21:39:49.075Z,4.30
2022-09-21T21:41:52.478Z,4.57
2022-09-21T21:43:56.236Z,4.80
2022-09-21T21:46:02.516Z,4.90
2022-09-21T21:48:06.463Z,4.50
2022-09-21T21:50:11.990Z,4.77
2022-09-21T21:52:15.816Z,4.20
2022-09-21T21:54:19.505Z,4.40
2022-09-21T21:56:23.312Z,5.20
2022-09-21T21:58:27.631Z,5.40
2022-09-21T22:00:31.031Z,17.93
2022-09-21T22:02:34.465Z,7.00
2022-09-21T22:04:38.704Z,7.10
2022-09-21T22:06:43.827Z,6.50
2022-09-21T22:08:47.375Z,5.97
2022-09-21T22:10:51.771Z,4.20
2022-09-21T22:12:57.071Z,4.27
2022-09-21T22:15:00.687Z,4.53
2022-09-21T22:17:04.663Z,4.40
2022-09-21T22:19:09.358Z,3.90
2022-09-21T22:21:18.207Z,4.50
2022-09-21T22:23:23.474Z,4.27
2022-09-21T22:25:26.931Z,3.97
2022-09-21T22:27:30.888Z,3.50
2022-09-21T22:29:35.381Z,3.77
2022-09-21T22:31:41.051Z,3.43
2022-09-21T22:33:45.827Z,3.77
2022-09-21T22:35:49.196Z,3.63
2022-09-21T22:37:52.775Z,2.93
2022-09-21T22:39:57.533Z,3.40
2022-09-21T22:42:01.440Z,3.70
2022-09-21T22:44:05.250Z,3.50
2022-09-21T22:46:08.868Z,4.27
2022-09-21T22:48:12.370Z,4.53
2022-09-21T22:50:15.764Z,3.13
2022-09-21T22:52:19.169Z,3.70
2022-09-21T22:54:23.021Z,3.47
2022-09-21T22:56:29.936Z,3.90
2022-09-21T22:58:34.651Z,3.83
2022-09-21T23:00:38.073Z,3.53
2022-09-21T23:02:42.296Z,3.37
2022-09-21T23:04:46.072Z,3.33
2022-09-21T23:06:50.237Z,3.47
2022-09-21T23:08:56.216Z,3.03
2022-09-21T23:11:06.871Z,3.13
2022-09-21T23:13:15.415Z,3.63
2022-09-21T23:15:19.232Z,3.70
2022-09-21T23:17:22.666Z,2.77
2022-09-21T23:19:26.266Z,3.23
2022-09-21T23:21:31.397Z,3.27
2022-09-21T23:23:35.472Z,3.00
2022-09-21T23:25:38.994Z,3.20
2022-09-21T23:27:42.491Z,3.23
2022-09-21T23:29:47.231Z,3.20
2022-09-21T23:31:50.935Z,3.07
2022-09-21T23:33:56.401Z,3.13
2022-09-21T23:36:00.132Z,3.03
2022-09-21T23:38:03.581Z,3.33
2022-09-21T23:40:08.208Z,3.40
2022-09-21T23:42:11.821Z,3.30
2022-09-21T23:44:15.310Z,2.83
2022-09-21T23:46:22.003Z,3.60
2022-09-21T23:48:26.840Z,2.47
2022-09-21T23:50:30.258Z,2.67
2022-09-21T23:52:34.013Z,2.47
2022-09-21T23:54:37.636Z,3.40
2022-09-21T23:56:41.134Z,3.10
2022-09-21T23:58:45.102Z,2.63
